sensor_id;sensor_type;location;lat;lon;timestamp;P1;durP1;ratioP1;P2;durP2;ratioP2
20173;SDS011;10246;50.620;7.232;2022-07-23T00:01:36;11.00;;;8.57;;
20173;SDS011;10246;50.620;7.232;2022-07-23T00:04:03;12.13;;;9.43;;
20173;SDS011;10246;50.620;7.232;2022-07-23T00:06:30;14.43;;;9.77;;
20173;SDS011;10246;50.620;7.232;2022-07-23T00:08:57;12.80;;;8.83;;
20173;SDS011;10246;50.620;7.232;2022-07-23T00:11:25;11.50;;;8.63;;
20173;SDS011;10246;50.620;7.232;2022-07-23T00:13:51;10.60;;;8.67;;
20173;SDS011;10246;50.620;7.232;2022-07-23T00:16:19;10.60;;;8.70;;
20173;SDS011;10246;50.620;7.232;2022-07-23T00:18:46;10.07;;;8.23;;
20173;SDS011;10246;50.620;7.232;2022-07-23T00:21:13;11.17;;;8.80;;
20173;SDS011;10246;50.620;7.232;2022-07-23T00:23:40;11.53;;;9.40;;
20173;SDS011;10246;50.620;7.232;2022-07-23T00:26:06;11.43;;;8.70;;
20173;SDS011;10246;50.620;7.232;2022-07-23T00:28:34;11.13;;;8.93;;
20173;SDS011;10246;50.620;7.232;2022-07-23T00:31:01;12.73;;;9.30;;
20173;SDS011;10246;50.620;7.232;2022-07-23T00:33:28;11.70;;;9.53;;
20173;SDS011;10246;50.620;7.232;2022-07-23T00:35:55;12.03;;;8.90;;
20173;SDS011;10246;50.620;7.232;2022-07-23T00:38:22;12.33;;;8.33;;
20173;SDS011;10246;50.620;7.232;2022-07-23T00:40:49;10.60;;;8.53;;
20173;SDS011;10246;50.620;7.232;2022-07-23T00:43:16;11.13;;;9.00;;
20173;SDS011;10246;50.620;7.232;2022-07-23T00:45:44;12.00;;;9.63;;
20173;SDS011;10246;50.620;7.232;2022-07-23T00:48:11;11.73;;;9.37;;
20173;SDS011;10246;50.620;7.232;2022-07-23T00:50:37;16.13;;;10.63;;
20173;SDS011;10246;50.620;7.232;2022-07-23T00:53:04;10.93;;;9.50;;
20173;SDS011;10246;50.620;7.232;2022-07-23T00:55:33;11.13;;;8.93;;
20173;SDS011;10246;50.620;7.232;2022-07-23T00:58:00;12.67;;;9.70;;
20173;SDS011;10246;50.620;7.232;2022-07-23T01:00:28;12.83;;;9.67;;
20173;SDS011;10246;50.620;7.232;2022-07-23T01:02:56;15.27;;;10.20;;
20173;SDS011;10246;50.620;7.232;2022-07-23T01:05:23;10.53;;;8.70;;
20173;SDS011;10246;50.620;7.232;2022-07-23T01:07:50;12.77;;;9.43;;
20173;SDS011;10246;50.620;7.232;2022-07-23T01:10:18;14.73;;;10.20;;
20173;SDS011;10246;50.620;7.232;2022-07-23T01:12:57;13.20;;;9.53;;
20173;SDS011;10246;50.620;7.232;2022-07-23T01:15:24;16.03;;;9.67;;
20173;SDS011;10246;50.620;7.232;2022-07-23T01:17:51;15.07;;;9.60;;
20173;SDS011;10246;50.620;7.232;2022-07-23T01:20:19;12.50;;;9.07;;
20173;SDS011;10246;50.620;7.232;2022-07-23T01:22:47;13.53;;;9.60;;
20173;SDS011;10246;50.620;7.232;2022-07-23T01:25:14;10.73;;;8.73;;
20173;SDS011;10246;50.620;7.232;2022-07-23T01:27:41;12.87;;;9.47;;
20173;SDS011;10246;50.620;7.232;2022-07-23T01:30:08;13.00;;;10.17;;
20173;SDS011;10246;50.620;7.232;2022-07-23T01:32:36;12.10;;;9.23;;
20173;SDS011;10246;50.620;7.232;2022-07-23T01:35:03;13.10;;;9.93;;
20173;SDS011;10246;50.620;7.232;2022-07-23T01:37:31;12.43;;;9.53;;
20173;SDS011;10246;50.620;7.232;2022-07-23T01:39:59;13.33;;;10.47;;
20173;SDS011;10246;50.620;7.232;2022-07-23T01:42:25;13.50;;;10.60;;
20173;SDS011;10246;50.620;7.232;2022-07-23T01:44:52;13.13;;;10.27;;
20173;SDS011;10246;50.620;7.232;2022-07-23T01:47:19;12.97;;;9.83;;
20173;SDS011;10246;50.620;7.232;2022-07-23T01:49:46;12.67;;;9.57;;
20173;SDS011;10246;50.620;7.232;2022-07-23T01:52:13;13.83;;;10.03;;
20173;SDS011;10246;50.620;7.232;2022-07-23T01:54:40;13.50;;;9.67;;
20173;SDS011;10246;50.620;7.232;2022-07-23T01:57:08;13.23;;;10.43;;
20173;SDS011;10246;50.620;7.232;2022-07-23T01:59:35;13.80;;;9.90;;
20173;SDS011;10246;50.620;7.232;2022-07-23T02:02:02;16.07;;;11.07;;
20173;SDS011;10246;50.620;7.232;2022-07-23T02:04:30;17.47;;;11.83;;
20173;SDS011;10246;50.620;7.232;2022-07-23T02:07:00;11.90;;;10.00;;
20173;SDS011;10246;50.620;7.232;2022-07-23T02:09:27;13.37;;;10.50;;
20173;SDS011;10246;50.620;7.232;2022-07-23T02:11:54;15.80;;;11.57;;
20173;SDS011;10246;50.620;7.232;2022-07-23T02:14:22;17.47;;;11.90;;
20173;SDS011;10246;50.620;7.232;2022-07-23T02:16:49;14.97;;;10.60;;
20173;SDS011;10246;50.620;7.232;2022-07-23T02:19:15;16.40;;;12.03;;
20173;SDS011;10246;50.620;7.232;2022-07-23T02:21:42;19.50;;;11.60;;
20173;SDS011;10246;50.620;7.232;2022-07-23T02:24:09;16.67;;;11.70;;
20173;SDS011;10246;50.620;7.232;2022-07-23T02:26:36;14.17;;;11.10;;
20173;SDS011;10246;50.620;7.232;2022-07-23T02:29:03;14.97;;;10.10;;
20173;SDS011;10246;50.620;7.232;2022-07-23T02:31:31;15.17;;;10.70;;
20173;SDS011;10246;50.620;7.232;2022-07-23T02:33:59;14.57;;;10.90;;
20173;SDS011;10246;50.620;7.232;2022-07-23T02:36:26;16.77;;;10.87;;
20173;SDS011;10246;50.620;7.232;2022-07-23T02:38:53;14.30;;;10.90;;
20173;SDS011;10246;50.620;7.232;2022-07-23T02:41:20;14.83;;;10.50;;
20173;SDS011;10246;50.620;7.232;2022-07-23T02:43:47;15.73;;;10.83;;
20173;SDS011;10246;50.620;7.232;2022-07-23T02:46:13;14.80;;;10.10;;
20173;SDS011;10246;50.620;7.232;2022-07-23T02:48:41;13.67;;;10.43;;
20173;SDS011;10246;50.620;7.232;2022-07-23T02:51:08;15.23;;;10.53;;
20173;SDS011;10246;50.620;7.232;2022-07-23T02:53:35;13.30;;;10.17;;
20173;SDS011;10246;50.620;7.232;2022-07-23T02:56:02;12.90;;;10.03;;
20173;SDS011;10246;50.620;7.232;2022-07-23T02:58:29;12.87;;;9.50;;
20173;SDS011;10246;50.620;7.232;2022-07-23T03:00:56;13.77;;;10.40;;
20173;SDS011;10246;50.620;7.232;2022-07-23T03:03:22;13.13;;;10.17;;
20173;SDS011;10246;50.620;7.232;2022-07-23T03:05:50;14.87;;;9.80;;
20173;SDS011;10246;50.620;7.232;2022-07-23T03:08:17;12.60;;;10.07;;
20173;SDS011;10246;50.620;7.232;2022-07-23T03:10:44;14.10;;;10.13;;
20173;SDS011;10246;50.620;7.232;2022-07-23T03:13:11;13.20;;;10.10;;
20173;SDS011;10246;50.620;7.232;2022-07-23T03:15:37;14.27;;;10.77;;
20173;SDS011;10246;50.620;7.232;2022-07-23T03:18:04;13.17;;;9.93;;
20173;SDS011;10246;50.620;7.232;2022-07-23T03:20:31;13.73;;;9.97;;
20173;SDS011;10246;50.620;7.232;2022-07-23T03:22:59;14.97;;;11.13;;
20173;SDS011;10246;50.620;7.232;2022-07-23T03:25:26;13.43;;;10.50;;
20173;SDS011;10246;50.620;7.232;2022-07-23T03:27:53;12.87;;;10.07;;
20173;SDS011;10246;50.620;7.232;2022-07-23T03:30:20;12.90;;;10.47;;
20173;SDS011;10246;50.620;7.232;2022-07-23T03:32:47;14.00;;;10.63;;
20173;SDS011;10246;50.620;7.232;2022-07-23T03:35:13;15.33;;;10.50;;
20173;SDS011;10246;50.620;7.232;2022-07-23T03:37:40;14.67;;;10.47;;
20173;SDS011;10246;50.620;7.232;2022-07-23T03:40:09;18.13;;;10.47;;
20173;SDS011;10246;50.620;7.232;2022-07-23T03:42:37;15.93;;;10.23;;
20173;SDS011;10246;50.620;7.232;2022-07-23T03:45:06;14.53;;;10.50;;
20173;SDS011;10246;50.620;7.232;2022-07-23T03:47:33;11.53;;;9.67;;
20173;SDS011;10246;50.620;7.232;2022-07-23T03:50:00;13.23;;;10.87;;
20173;SDS011;10246;50.620;7.232;2022-07-23T03:52:27;15.53;;;10.60;;
20173;SDS011;10246;50.620;7.232;2022-07-23T03:54:53;12.90;;;10.43;;
20173;SDS011;10246;50.620;7.232;2022-07-23T03:57:22;13.60;;;10.63;;
20173;SDS011;10246;50.620;7.232;2022-07-23T03:59:48;15.33;;;11.37;;
20173;SDS011;10246;50.620;7.232;2022-07-23T04:02:15;13.93;;;10.37;;
20173;SDS011;10246;50.620;7.232;2022-07-23T04:04:42;14.73;;;11.23;;
20173;SDS011;10246;50.620;7.232;2022-07-23T04:07:09;16.10;;;11.37;;
20173;SDS011;10246;50.620;7.232;2022-07-23T04:09:35;16.07;;;11.03;;
20173;SDS011;10246;50.620;7.232;2022-07-23T04:12:02;13.77;;;10.47;;
20173;SDS011;10246;50.620;7.232;2022-07-23T04:14:31;13.33;;;10.80;;
20173;SDS011;10246;50.620;7.232;2022-07-23T04:16:57;15.20;;;10.57;;
20173;SDS011;10246;50.620;7.232;2022-07-23T04:19:24;14.50;;;10.67;;
20173;SDS011;10246;50.620;7.232;2022-07-23T04:21:51;17.00;;;11.30;;
20173;SDS011;10246;50.620;7.232;2022-07-23T04:24:18;15.30;;;11.27;;
20173;SDS011;10246;50.620;7.232;2022-07-23T04:26:45;14.47;;;11.50;;
20173;SDS011;10246;50.620;7.232;2022-07-23T04:29:12;14.93;;;11.53;;
20173;SDS011;10246;50.620;7.232;2022-07-23T04:31:40;15.57;;;11.13;;
20173;SDS011;10246;50.620;7.232;2022-07-23T04:34:07;14.60;;;11.33;;
20173;SDS011;10246;50.620;7.232;2022-07-23T04:36:34;15.83;;;11.53;;
20173;SDS011;10246;50.620;7.232;2022-07-23T04:39:00;18.67;;;11.50;;
20173;SDS011;10246;50.620;7.232;2022-07-23T04:41:27;17.03;;;12.23;;
20173;SDS011;10246;50.620;7.232;2022-07-23T04:43:54;18.70;;;12.30;;
20173;SDS011;10246;50.620;7.232;2022-07-23T04:46:20;17.87;;;12.13;;
20173;SDS011;10246;50.620;7.232;2022-07-23T04:48:48;16.83;;;11.33;;
20173;SDS011;10246;50.620;7.232;2022-07-23T04:51:16;18.43;;;11.73;;
20173;SDS011;10246;50.620;7.232;2022-07-23T04:53:43;19.17;;;12.37;;
20173;SDS011;10246;50.620;7.232;2022-07-23T04:56:10;17.63;;;12.37;;
20173;SDS011;10246;50.620;7.232;2022-07-23T04:58:37;17.67;;;12.37;;
20173;SDS011;10246;50.620;7.232;2022-07-23T05:01:04;15.93;;;12.50;;
20173;SDS011;10246;50.620;7.232;2022-07-23T05:03:30;17.43;;;11.70;;
20173;SDS011;10246;50.620;7.232;2022-07-23T05:05:59;15.17;;;11.93;;
20173;SDS011;10246;50.620;7.232;2022-07-23T05:08:26;18.67;;;12.23;;
20173;SDS011;10246;50.620;7.232;2022-07-23T05:10:53;20.40;;;12.87;;
20173;SDS011;10246;50.620;7.232;2022-07-23T05:13:19;24.23;;;14.00;;
20173;SDS011;10246;50.620;7.232;2022-07-23T05:15:46;23.77;;;15.40;;
20173;SDS011;10246;50.620;7.232;2022-07-23T05:18:13;22.73;;;15.07;;
20173;SDS011;10246;50.620;7.232;2022-07-23T05:20:40;25.50;;;16.13;;
20173;SDS011;10246;50.620;7.232;2022-07-23T05:23:08;22.03;;;14.67;;
20173;SDS011;10246;50.620;7.232;2022-07-23T05:25:35;17.47;;;12.37;;
20173;SDS011;10246;50.620;7.232;2022-07-23T05:28:02;17.40;;;11.67;;
20173;SDS011;10246;50.620;7.232;2022-07-23T05:30:29;18.73;;;12.83;;
20173;SDS011;10246;50.620;7.232;2022-07-23T05:32:56;19.23;;;13.67;;
20173;SDS011;10246;50.620;7.232;2022-07-23T05:35:23;20.87;;;13.70;;
20173;SDS011;10246;50.620;7.232;2022-07-23T05:37:50;19.07;;;12.40;;
20173;SDS011;10246;50.620;7.232;2022-07-23T05:40:19;17.13;;;12.27;;
20173;SDS011;10246;50.620;7.232;2022-07-23T05:42:45;19.90;;;13.23;;
20173;SDS011;10246;50.620;7.232;2022-07-23T05:45:12;20.20;;;12.70;;
20173;SDS011;10246;50.620;7.232;2022-07-23T05:47:39;20.23;;;12.27;;
20173;SDS011;10246;50.620;7.232;2022-07-23T05:50:07;17.60;;;11.53;;
20173;SDS011;10246;50.620;7.232;2022-07-23T05:52:34;15.33;;;10.50;;
20173;SDS011;10246;50.620;7.232;2022-07-23T05:55:01;15.87;;;10.60;;
20173;SDS011;10246;50.620;7.232;2022-07-23T05:57:29;13.03;;;8.80;;
20173;SDS011;10246;50.620;7.232;2022-07-23T05:59:56;17.13;;;11.50;;
20173;SDS011;10246;50.620;7.232;2022-07-23T06:02:23;17.83;;;12.30;;
20173;SDS011;10246;50.620;7.232;2022-07-23T06:04:50;17.17;;;11.20;;
20173;SDS011;10246;50.620;7.232;2022-07-23T06:07:16;18.77;;;11.23;;
20173;SDS011;10246;50.620;7.232;2022-07-23T06:09:43;17.17;;;11.43;;
20173;SDS011;10246;50.620;7.232;2022-07-23T06:12:11;18.10;;;12.27;;
20173;SDS011;10246;50.620;7.232;2022-07-23T06:14:40;19.63;;;13.03;;
20173;SDS011;10246;50.620;7.232;2022-07-23T06:17:07;21.13;;;14.07;;
20173;SDS011;10246;50.620;7.232;2022-07-23T06:19:34;20.83;;;13.40;;
20173;SDS011;10246;50.620;7.232;2022-07-23T06:22:00;22.43;;;13.87;;
20173;SDS011;10246;50.620;7.232;2022-07-23T06:24:27;22.73;;;14.27;;
20173;SDS011;10246;50.620;7.232;2022-07-23T06:26:54;19.80;;;13.13;;
20173;SDS011;10246;50.620;7.232;2022-07-23T06:29:21;23.30;;;14.73;;
20173;SDS011;10246;50.620;7.232;2022-07-23T06:31:49;22.13;;;13.60;;
20173;SDS011;10246;50.620;7.232;2022-07-23T06:34:16;23.53;;;13.90;;
20173;SDS011;10246;50.620;7.232;2022-07-23T06:36:42;24.73;;;14.47;;
20173;SDS011;10246;50.620;7.232;2022-07-23T06:39:09;23.57;;;15.17;;
20173;SDS011;10246;50.620;7.232;2022-07-23T06:41:36;23.57;;;14.23;;
20173;SDS011;10246;50.620;7.232;2022-07-23T06:44:03;19.47;;;13.43;;
20173;SDS011;10246;50.620;7.232;2022-07-23T06:46:30;22.13;;;13.63;;
20173;SDS011;10246;50.620;7.232;2022-07-23T06:48:58;19.97;;;13.30;;
20173;SDS011;10246;50.620;7.232;2022-07-23T06:51:25;18.77;;;12.63;;
20173;SDS011;10246;50.620;7.232;2022-07-23T06:53:52;20.40;;;13.50;;
20173;SDS011;10246;50.620;7.232;2022-07-23T06:56:19;21.10;;;12.50;;
20173;SDS011;10246;50.620;7.232;2022-07-23T06:58:46;18.63;;;12.53;;
20173;SDS011;10246;50.620;7.232;2022-07-23T07:01:13;22.83;;;13.93;;
20173;SDS011;10246;50.620;7.232;2022-07-23T07:03:39;21.93;;;13.67;;
20173;SDS011;10246;50.620;7.232;2022-07-23T07:06:07;18.80;;;12.07;;
20173;SDS011;10246;50.620;7.232;2022-07-23T07:08:34;19.50;;;12.60;;
20173;SDS011;10246;50.620;7.232;2022-07-23T07:11:01;19.27;;;12.20;;
20173;SDS011;10246;50.620;7.232;2022-07-23T07:13:28;13.47;;;9.83;;
20173;SDS011;10246;50.620;7.232;2022-07-23T07:15:55;19.20;;;12.87;;
20173;SDS011;10246;50.620;7.232;2022-07-23T07:18:21;18.33;;;11.57;;
20173;SDS011;10246;50.620;7.232;2022-07-23T07:20:48;20.63;;;12.90;;
20173;SDS011;10246;50.620;7.232;2022-07-23T07:23:16;16.63;;;11.57;;
20173;SDS011;10246;50.620;7.232;2022-07-23T07:25:43;16.70;;;10.17;;
20173;SDS011;10246;50.620;7.232;2022-07-23T07:28:09;15.57;;;9.10;;
20173;SDS011;10246;50.620;7.232;2022-07-23T07:30:36;13.60;;;9.30;;
20173;SDS011;10246;50.620;7.232;2022-07-23T07:33:03;11.43;;;7.73;;
20173;SDS011;10246;50.620;7.232;2022-07-23T07:35:30;14.93;;;9.73;;
20173;SDS011;10246;50.620;7.232;2022-07-23T07:37:57;14.60;;;9.83;;
20173;SDS011;10246;50.620;7.232;2022-07-23T07:40:25;13.17;;;8.50;;
20173;SDS011;10246;50.620;7.232;2022-07-23T07:42:53;10.63;;;6.70;;
20173;SDS011;10246;50.620;7.232;2022-07-23T07:45:22;10.97;;;6.70;;
20173;SDS011;10246;50.620;7.232;2022-07-23T07:47:49;8.27;;;6.03;;
20173;SDS011;10246;50.620;7.232;2022-07-23T07:50:16;7.67;;;5.70;;
20173;SDS011;10246;50.620;7.232;2022-07-23T07:52:43;9.10;;;4.70;;
20173;SDS011;10246;50.620;7.232;2022-07-23T07:55:10;10.63;;;5.73;;
20173;SDS011;10246;50.620;7.232;2022-07-23T07:57:39;6.60;;;5.10;;
20173;SDS011;10246;50.620;7.232;2022-07-23T08:00:07;7.23;;;4.23;;
20173;SDS011;10246;50.620;7.232;2022-07-23T08:02:42;6.73;;;4.57;;
20173;SDS011;10246;50.620;7.232;2022-07-23T08:05:09;5.43;;;4.07;;
20173;SDS011;10246;50.620;7.232;2022-07-23T08:07:36;9.10;;;3.70;;
20173;SDS011;10246;50.620;7.232;2022-07-23T08:10:04;4.70;;;3.90;;
20173;SDS011;10246;50.620;7.232;2022-07-23T08:12:42;5.50;;;4.17;;
20173;SDS011;10246;50.620;7.232;2022-07-23T08:15:10;9.00;;;4.93;;
20173;SDS011;10246;50.620;7.232;2022-07-23T08:17:38;10.50;;;5.17;;
20173;SDS011;10246;50.620;7.232;2022-07-23T08:20:05;5.80;;;4.47;;
20173;SDS011;10246;50.620;7.232;2022-07-23T08:22:43;7.40;;;4.50;;
20173;SDS011;10246;50.620;7.232;2022-07-23T08:25:11;12.30;;;5.87;;
20173;SDS011;10246;50.620;7.232;2022-07-23T08:27:38;8.80;;;4.60;;
20173;SDS011;10246;50.620;7.232;2022-07-23T08:30:07;7.03;;;4.80;;
20173;SDS011;10246;50.620;7.232;2022-07-23T08:32:47;6.50;;;4.00;;
20173;SDS011;10246;50.620;7.232;2022-07-23T08:35:14;6.97;;;4.70;;
20173;SDS011;10246;50.620;7.232;2022-07-23T08:37:41;9.13;;;4.67;;
20173;SDS011;10246;50.620;7.232;2022-07-23T08:40:09;5.13;;;3.87;;
20173;SDS011;10246;50.620;7.232;2022-07-23T08:42:37;6.77;;;4.60;;
20173;SDS011;10246;50.620;7.232;2022-07-23T08:45:07;5.83;;;4.33;;
20173;SDS011;10246;50.620;7.232;2022-07-23T08:47:34;6.73;;;4.37;;
20173;SDS011;10246;50.620;7.232;2022-07-23T08:50:03;7.50;;;4.63;;
20173;SDS011;10246;50.620;7.232;2022-07-23T08:52:30;6.97;;;4.57;;
20173;SDS011;10246;50.620;7.232;2022-07-23T08:54:57;4.47;;;4.03;;
20173;SDS011;10246;50.620;7.232;2022-07-23T08:57:24;6.97;;;4.27;;
20173;SDS011;10246;50.620;7.232;2022-07-23T08:59:51;7.80;;;3.87;;
20173;SDS011;10246;50.620;7.232;2022-07-23T09:02:20;5.83;;;3.53;;
20173;SDS011;10246;50.620;7.232;2022-07-23T09:04:46;5.40;;;4.03;;
20173;SDS011;10246;50.620;7.232;2022-07-23T09:07:13;5.17;;;3.57;;
20173;SDS011;10246;50.620;7.232;2022-07-23T09:09:40;5.47;;;3.50;;
20173;SDS011;10246;50.620;7.232;2022-07-23T09:12:07;7.07;;;3.60;;
20173;SDS011;10246;50.620;7.232;2022-07-23T09:14:36;7.40;;;3.80;;
20173;SDS011;10246;50.620;7.232;2022-07-23T09:17:08;4.07;;;3.40;;
20173;SDS011;10246;50.620;7.232;2022-07-23T09:19:37;6.53;;;4.20;;
20173;SDS011;10246;50.620;7.232;2022-07-23T09:22:17;6.80;;;4.30;;
20173;SDS011;10246;50.620;7.232;2022-07-23T09:27:44;7.23;;;3.83;;
20173;SDS011;10246;50.620;7.232;2022-07-23T09:30:13;7.90;;;4.20;;
20173;SDS011;10246;50.620;7.232;2022-07-23T09:32:40;8.63;;;5.10;;
20173;SDS011;10246;50.620;7.232;2022-07-23T09:35:08;6.80;;;4.30;;
20173;SDS011;10246;50.620;7.232;2022-07-23T09:37:35;4.57;;;3.77;;
20173;SDS011;10246;50.620;7.232;2022-07-23T09:40:04;5.30;;;4.03;;
20173;SDS011;10246;50.620;7.232;2022-07-23T09:42:33;5.57;;;3.47;;
20173;SDS011;10246;50.620;7.232;2022-07-23T09:45:00;5.87;;;4.07;;
20173;SDS011;10246;50.620;7.232;2022-07-23T09:47:29;6.38;;;3.95;;
20173;SDS011;10246;50.620;7.232;2022-07-23T09:49:58;6.03;;;4.00;;
20173;SDS011;10246;50.620;7.232;2022-07-23T09:52:27;8.00;;;4.25;;
20173;SDS011;10246;50.620;7.232;2022-07-23T09:54:58;8.43;;;4.70;;
20173;SDS011;10246;50.620;7.232;2022-07-23T09:57:27;7.10;;;4.90;;
20173;SDS011;10246;50.620;7.232;2022-07-23T09:59:55;6.68;;;4.47;;
20173;SDS011;10246;50.620;7.232;2022-07-23T10:02:26;5.90;;;4.00;;
20173;SDS011;10246;50.620;7.232;2022-07-23T10:04:54;4.70;;;3.33;;
20173;SDS011;10246;50.620;7.232;2022-07-23T10:07:22;5.68;;;4.07;;
20173;SDS011;10246;50.620;7.232;2022-07-23T10:09:53;4.90;;;3.70;;
20173;SDS011;10246;50.620;7.232;2022-07-23T10:12:20;6.07;;;3.15;;
20173;SDS011;10246;50.620;7.232;2022-07-23T10:14:57;6.45;;;3.20;;
20173;SDS011;10246;50.620;7.232;2022-07-23T10:17:24;7.00;;;4.15;;
20173;SDS011;10246;50.620;7.232;2022-07-23T10:19:53;6.53;;;3.90;;
20173;SDS011;10246;50.620;7.232;2022-07-23T10:22:21;4.03;;;3.15;;
20173;SDS011;10246;50.620;7.232;2022-07-23T10:24:55;6.35;;;3.72;;
20173;SDS011;10246;50.620;7.232;2022-07-23T10:30:20;5.20;;;3.20;;
20173;SDS011;10246;50.620;7.232;2022-07-23T10:32:58;3.70;;;3.30;;
20173;SDS011;10246;50.620;7.232;2022-07-23T10:35:38;6.50;;;3.80;;
20173;SDS011;10246;50.620;7.232;2022-07-23T10:38:10;5.22;;;4.43;;
20173;SDS011;10246;50.620;7.232;2022-07-23T10:40:50;3.85;;;3.38;;
20173;SDS011;10246;50.620;7.232;2022-07-23T10:43:20;4.65;;;3.72;;
20173;SDS011;10246;50.620;7.232;2022-07-23T10:45:47;7.95;;;3.55;;
20173;SDS011;10246;50.620;7.232;2022-07-23T10:48:16;4.07;;;3.10;;
20173;SDS011;10246;50.620;7.232;2022-07-23T10:51:05;7.47;;;3.70;;
20173;SDS011;10246;50.620;7.232;2022-07-23T10:59:31;6.50;;;3.50;;
20173;SDS011;10246;50.620;7.232;2022-07-23T11:02:32;4.32;;;3.38;;
20173;SDS011;10246;50.620;7.232;2022-07-23T11:05:00;3.53;;;2.80;;
20173;SDS011;10246;50.620;7.232;2022-07-23T11:07:29;3.28;;;2.78;;
20173;SDS011;10246;50.620;7.232;2022-07-23T11:09:56;3.58;;;2.58;;
20173;SDS011;10246;50.620;7.232;2022-07-23T11:12:37;6.22;;;2.88;;
20173;SDS011;10246;50.620;7.232;2022-07-23T11:15:04;3.83;;;2.88;;
20173;SDS011;10246;50.620;7.232;2022-07-23T11:17:33;4.32;;;3.40;;
20173;SDS011;10246;50.620;7.232;2022-07-23T11:20:16;4.18;;;3.25;;
20173;SDS011;10246;50.620;7.232;2022-07-23T11:22:47;5.18;;;3.22;;
20173;SDS011;10246;50.620;7.232;2022-07-23T11:25:28;4.53;;;3.00;;
20173;SDS011;10246;50.620;7.232;2022-07-23T11:28:08;4.75;;;2.75;;
20173;SDS011;10246;50.620;7.232;2022-07-23T11:30:45;2.97;;;2.67;;
20173;SDS011;10246;50.620;7.232;2022-07-23T11:33:16;3.63;;;2.92;;
20173;SDS011;10246;50.620;7.232;2022-07-23T11:35:46;4.57;;;3.33;;
20173;SDS011;10246;50.620;7.232;2022-07-23T11:38:16;5.70;;;3.83;;
20173;SDS011;10246;50.620;7.232;2022-07-23T11:40:45;4.72;;;3.40;;
20173;SDS011;10246;50.620;7.232;2022-07-23T11:43:16;4.15;;;3.10;;
20173;SDS011;10246;50.620;7.232;2022-07-23T11:45:44;3.17;;;2.88;;
20173;SDS011;10246;50.620;7.232;2022-07-23T11:48:16;2.90;;;2.60;;
20173;SDS011;10246;50.620;7.232;2022-07-23T11:50:45;3.38;;;2.70;;
20173;SDS011;10246;50.620;7.232;2022-07-23T11:53:11;4.65;;;2.60;;
20173;SDS011;10246;50.620;7.232;2022-07-23T11:55:39;5.15;;;3.60;;
20173;SDS011;10246;50.620;7.232;2022-07-23T11:58:06;4.22;;;3.15;;
20173;SDS011;10246;50.620;7.232;2022-07-23T12:00:34;3.38;;;3.05;;
20173;SDS011;10246;50.620;7.232;2022-07-23T12:03:01;3.90;;;3.25;;
20173;SDS011;10246;50.620;7.232;2022-07-23T12:05:32;4.00;;;3.38;;
20173;SDS011;10246;50.620;7.232;2022-07-23T12:08:00;3.05;;;2.75;;
20173;SDS011;10246;50.620;7.232;2022-07-23T12:10:30;5.10;;;3.80;;
20173;SDS011;10246;50.620;7.232;2022-07-23T12:13:01;3.65;;;3.35;;
20173;SDS011;10246;50.620;7.232;2022-07-23T12:15:30;3.97;;;3.38;;
20173;SDS011;10246;50.620;7.232;2022-07-23T12:17:59;4.22;;;3.15;;
20173;SDS011;10246;50.620;7.232;2022-07-23T12:20:28;3.97;;;3.50;;
20173;SDS011;10246;50.620;7.232;2022-07-23T12:22:57;6.40;;;3.75;;
20173;SDS011;10246;50.620;7.232;2022-07-23T12:25:27;4.55;;;3.80;;
20173;SDS011;10246;50.620;7.232;2022-07-23T12:27:58;5.43;;;3.75;;
20173;SDS011;10246;50.620;7.232;2022-07-23T12:30:31;4.95;;;3.80;;
20173;SDS011;10246;50.620;7.232;2022-07-23T12:33:00;5.10;;;3.92;;
20173;SDS011;10246;50.620;7.232;2022-07-23T12:35:32;6.00;;;3.78;;
20173;SDS011;10246;50.620;7.232;2022-07-23T12:38:02;9.95;;;4.25;;
20173;SDS011;10246;50.620;7.232;2022-07-23T12:40:31;4.68;;;4.25;;
20173;SDS011;10246;50.620;7.232;2022-07-23T12:43:00;5.70;;;4.43;;
20173;SDS011;10246;50.620;7.232;2022-07-23T12:45:41;4.50;;;4.10;;
20173;SDS011;10246;50.620;7.232;2022-07-23T12:48:16;4.30;;;3.90;;
20173;SDS011;10246;50.620;7.232;2022-07-23T12:50:51;7.22;;;4.65;;
20173;SDS011;10246;50.620;7.232;2022-07-23T12:53:20;4.95;;;4.30;;
20173;SDS011;10246;50.620;7.232;2022-07-23T12:55:49;4.82;;;4.32;;
20173;SDS011;10246;50.620;7.232;2022-07-23T12:58:23;5.78;;;4.63;;
20173;SDS011;10246;50.620;7.232;2022-07-23T13:00:54;5.65;;;4.30;;
20173;SDS011;10246;50.620;7.232;2022-07-23T13:03:25;6.35;;;4.32;;
20173;SDS011;10246;50.620;7.232;2022-07-23T13:05:54;6.10;;;4.38;;
20173;SDS011;10246;50.620;7.232;2022-07-23T13:08:21;5.50;;;4.00;;
20173;SDS011;10246;50.620;7.232;2022-07-23T13:10:49;5.05;;;4.43;;
20173;SDS011;10246;50.620;7.232;2022-07-23T13:13:16;5.47;;;4.63;;
20173;SDS011;10246;50.620;7.232;2022-07-23T13:15:45;7.18;;;4.28;;
20173;SDS011;10246;50.620;7.232;2022-07-23T13:18:12;5.30;;;4.78;;
20173;SDS011;10246;50.620;7.232;2022-07-23T13:20:40;5.75;;;4.47;;
20173;SDS011;10246;50.620;7.232;2022-07-23T13:23:07;4.65;;;4.18;;
20173;SDS011;10246;50.620;7.232;2022-07-23T13:25:34;4.40;;;3.88;;
20173;SDS011;10246;50.620;7.232;2022-07-23T13:28:02;4.78;;;4.15;;
20173;SDS011;10246;50.620;7.232;2022-07-23T13:30:29;6.00;;;4.07;;
20173;SDS011;10246;50.620;7.232;2022-07-23T13:32:56;7.63;;;4.65;;
20173;SDS011;10246;50.620;7.232;2022-07-23T13:35:23;5.20;;;4.55;;
20173;SDS011;10246;50.620;7.232;2022-07-23T13:37:51;5.57;;;4.82;;
20173;SDS011;10246;50.620;7.232;2022-07-23T13:40:18;5.30;;;4.65;;
20173;SDS011;10246;50.620;7.232;2022-07-23T13:42:45;6.97;;;5.00;;
20173;SDS011;10246;50.620;7.232;2022-07-23T13:45:11;5.38;;;4.88;;
20173;SDS011;10246;50.620;7.232;2022-07-23T13:47:38;5.65;;;4.38;;
20173;SDS011;10246;50.620;7.232;2022-07-23T13:50:05;5.32;;;4.00;;
20173;SDS011;10246;50.620;7.232;2022-07-23T13:52:33;5.05;;;4.20;;
20173;SDS011;10246;50.620;7.232;2022-07-23T13:55:01;5.35;;;4.38;;
20173;SDS011;10246;50.620;7.232;2022-07-23T13:57:29;6.43;;;4.20;;
20173;SDS011;10246;50.620;7.232;2022-07-23T13:59:56;4.35;;;3.95;;
20173;SDS011;10246;50.620;7.232;2022-07-23T14:02:23;5.40;;;3.67;;
20173;SDS011;10246;50.620;7.232;2022-07-23T14:04:50;5.78;;;4.32;;
20173;SDS011;10246;50.620;7.232;2022-07-23T14:07:18;4.82;;;4.03;;
20173;SDS011;10246;50.620;7.232;2022-07-23T14:09:45;8.07;;;4.22;;
20173;SDS011;10246;50.620;7.232;2022-07-23T14:12:13;7.93;;;3.72;;
20173;SDS011;10246;50.620;7.232;2022-07-23T14:14:40;6.07;;;3.42;;
20173;SDS011;10246;50.620;7.232;2022-07-23T14:17:08;4.47;;;3.72;;
20173;SDS011;10246;50.620;7.232;2022-07-23T14:19:35;4.88;;;4.10;;
20173;SDS011;10246;50.620;7.232;2022-07-23T14:22:01;5.82;;;4.25;;
20173;SDS011;10246;50.620;7.232;2022-07-23T14:24:28;8.68;;;4.50;;
20173;SDS011;10246;50.620;7.232;2022-07-23T14:26:55;4.40;;;4.00;;
20173;SDS011;10246;50.620;7.232;2022-07-23T14:29:23;5.00;;;3.45;;
20173;SDS011;10246;50.620;7.232;2022-07-23T14:31:50;5.55;;;3.83;;
20173;SDS011;10246;50.620;7.232;2022-07-23T14:34:17;4.15;;;3.75;;
20173;SDS011;10246;50.620;7.232;2022-07-23T14:36:43;4.35;;;3.60;;
20173;SDS011;10246;50.620;7.232;2022-07-23T14:39:10;5.30;;;3.90;;
20173;SDS011;10246;50.620;7.232;2022-07-23T14:41:38;5.13;;;4.18;;
20173;SDS011;10246;50.620;7.232;2022-07-23T14:44:05;6.25;;;3.90;;
20173;SDS011;10246;50.620;7.232;2022-07-23T14:46:34;4.30;;;3.85;;
20173;SDS011;10246;50.620;7.232;2022-07-23T14:49:00;4.30;;;3.90;;
20173;SDS011;10246;50.620;7.232;2022-07-23T14:51:28;4.90;;;4.00;;
20173;SDS011;10246;50.620;7.232;2022-07-23T14:53:54;5.75;;;3.80;;